Time;durP1;ratioP1;P1;durP2;ratioP2;P2;SDS_P1;SDS_P2;PMS_P1;PMS_P2;Temp;Humidity;BMP_temperature;BMP_pressure;BME280_temperature;BME280_humidity;BME280_pressure;Samples;Min_cycle;Max_cycle;Signal;HPM_P1;HPM_P2
2023/08/02 00:01:10;;;;;;;4.28;3.58;;;;;;;;;;5099548;28;20103;-75
2023/08/02 00:03:36;;;;;;;4.05;3.75;;;;;;;;;;5100584;27;20103;-73
2023/08/02 00:06:01;;;;;;;4.10;3.72;;;;;;;;;;5100852;28;20031;-73
2023/08/02 00:08:26;;;;;;;4.47;4.07;;;;;;;;;;5099936;27;20040;-73
2023/08/02 00:10:52;;;;;;;4.45;4.00;;;;;;;;;;5099923;28;20449;-72
2023/08/02 00:13:18;;;;;;;3.70;3.30;;;;;;;;;;5100023;28;20137;-73
2023/08/02 00:15:43;;;;;;;3.80;3.30;;;;;;;;;;5099840;28;20038;-72
2023/08/02 00:18:09;;;;;;;4.30;3.40;;;;;;;;;;5100127;28;20036;-73
2023/08/02 00:20:35;;;;;;;3.70;3.22;;;;;;;;;;5099310;28;20344;-74
2023/08/02 00:23:00;;;;;;;3.97;3.45;;;;;;;;;;5099347;28;20031;-75
2023/08/02 00:25:26;;;;;;;3.90;3.30;;;;;;;;;;5102160;28;20103;-73
2023/08/02 00:27:51;;;;;;;4.07;3.50;;;;;;;;;;5100816;28;20040;-73
2023/08/02 00:30:16;;;;;;;3.60;3.30;;;;;;;;;;5098425;28;20126;-75
2023/08/02 00:32:45;;;;;;;3.63;3.33;;;;;;;;;;5098680;28;20031;-74
2023/08/02 00:35:10;;;;;;;3.80;3.50;;;;;;;;;;5098408;28;20027;-76
2023/08/02 00:37:35;;;;;;;5.80;3.80;;;;;;;;;;5100657;28;20031;-75
2023/08/02 00:40:01;;;;;;;4.35;3.50;;;;;;;;;;5100597;28;20367;-72
2023/08/02 00:42:26;;;;;;;3.90;3.45;;;;;;;;;;5099824;28;20456;-75
2023/08/02 00:44:52;;;;;;;4.13;3.83;;;;;;;;;;5099998;28;20494;-72
2023/08/02 00:47:17;;;;;;;4.53;3.55;;;;;;;;;;5096826;28;20039;-72
2023/08/02 00:49:44;;;;;;;4.30;3.90;;;;;;;;;;5097613;28;20069;-72
2023/08/02 00:52:09;;;;;;;4.82;3.90;;;;;;;;;;5099072;28;20034;-72
2023/08/02 00:54:35;;;;;;;3.78;3.47;;;;;;;;;;5100248;28;20020;-73
2023/08/02 00:57:01;;;;;;;4.15;3.53;;;;;;;;;;5100198;28;20035;-74
2023/08/02 00:59:26;;;;;;;3.85;3.55;;;;;;;;;;5101449;28;20024;-73
2023/08/02 01:01:51;;;;;;;4.35;4.03;;;;;;;;;;5096424;27;20078;-72
2023/08/02 01:04:17;;;;;;;3.72;3.42;;;;;;;;;;5098527;28;20027;-71
2023/08/02 01:06:46;;;;;;;4.28;3.92;;;;;;;;;;5100557;28;20028;-72
2023/08/02 01:09:26;;;;;;;4.15;3.60;;;;;;;;;;5097959;28;20028;-72
2023/08/02 01:11:57;;;;;;;3.92;3.60;;;;;;;;;;5096197;28;20023;-73
2023/08/02 01:14:23;;;;;;;4.43;3.92;;;;;;;;;;5098522;28;20016;-73
2023/08/02 01:16:49;;;;;;;3.78;3.42;;;;;;;;;;5098064;28;20148;-74
2023/08/02 01:19:19;;;;;;;6.50;3.65;;;;;;;;;;5098073;28;20334;-71
2023/08/02 01:21:44;;;;;;;;;;;;;;;;;;5096563;28;20080;-76
2023/08/02 01:24:10;;;;;;;4.37;3.97;;;;;;;;;;5096653;28;20321;-74
2023/08/02 01:26:37;;;;;;;4.30;3.92;;;;;;;;;;5098069;28;20031;-73
2023/08/02 01:29:05;;;;;;;4.80;3.95;;;;;;;;;;5098026;28;20077;-72
2023/08/02 01:31:32;;;;;;;3.95;3.55;;;;;;;;;;5099666;28;20034;-71
2023/08/02 01:33:58;;;;;;;6.43;3.80;;;;;;;;;;5099879;28;20092;-72
2023/08/02 01:36:23;;;;;;;4.10;3.70;;;;;;;;;;5093757;28;20116;-75
2023/08/02 01:38:50;;;;;;;4.15;3.85;;;;;;;;;;5098861;28;20051;-72
2023/08/02 01:41:16;;;;;;;4.20;3.80;;;;;;;;;;5095475;28;20027;-72
2023/08/02 01:43:41;;;;;;;4.25;3.92;;;;;;;;;;5097081;28;20031;-72
2023/08/02 01:46:06;;;;;;;4.45;4.15;;;;;;;;;;5096150;28;20035;-72
2023/08/02 01:48:32;;;;;;;4.25;3.95;;;;;;;;;;5098377;28;20141;-73
2023/08/02 01:50:57;;;;;;;5.80;4.32;;;;;;;;;;5094103;28;20028;-72
2023/08/02 01:53:22;;;;;;;3.92;3.60;;;;;;;;;;5096803;28;20042;-74
2023/08/02 01:55:48;;;;;;;4.85;3.67;;;;;;;;;;5096681;28;20520;-72
2023/08/02 01:58:13;;;;;;;4.22;3.83;;;;;;;;;;5099001;28;20109;-75
2023/08/02 02:00:38;;;;;;;4.25;3.95;;;;;;;;;;5095647;28;20115;-75
2023/08/02 02:03:04;;;;;;;4.72;3.63;;;;;;;;;;5097702;28;20039;-73
2023/08/02 02:05:29;;;;;;;4.55;3.80;;;;;;;;;;5098613;28;20434;-76
2023/08/02 02:07:54;;;;;;;6.18;3.90;;;;;;;;;;5095971;28;20593;-73
2023/08/02 02:10:20;;;;;;;4.60;3.80;;;;;;;;;;5096956;28;20019;-72
2023/08/02 02:12:45;;;;;;;4.10;3.78;;;;;;;;;;5099176;28;20028;-72
2023/08/02 02:15:10;;;;;;;4.95;3.65;;;;;;;;;;5096689;28;20024;-72
2023/08/02 02:17:36;;;;;;;4.30;3.90;;;;;;;;;;5096702;28;20058;-72
2023/08/02 02:20:01;;;;;;;4.07;3.78;;;;;;;;;;5096778;28;20020;-78
2023/08/02 02:22:26;;;;;;;6.07;3.75;;;;;;;;;;5097676;28;20016;-71
2023/08/02 02:24:52;;;;;;;4.30;3.75;;;;;;;;;;5097595;28;20023;-72
2023/08/02 02:27:17;;;;;;;4.13;3.75;;;;;;;;;;5097629;28;20116;-75
2023/08/02 02:29:42;;;;;;;4.40;3.97;;;;;;;;;;5098910;28;20027;-73
2023/08/02 02:32:08;;;;;;;4.03;3.67;;;;;;;;;;5096566;28;20032;-71
2023/08/02 02:34:33;;;;;;;4.47;4.07;;;;;;;;;;5097357;28;20035;-76
2023/08/02 02:36:58;;;;;;;4.63;4.22;;;;;;;;;;5096625;28;20042;-72
2023/08/02 02:39:24;;;;;;;4.13;3.72;;;;;;;;;;5098193;28;20131;-72
2023/08/02 02:41:49;;;;;;;3.88;3.55;;;;;;;;;;5098479;28;20161;-72
2023/08/02 02:44:15;;;;;;;3.95;3.65;;;;;;;;;;5097516;28;20036;-72
2023/08/02 02:46:40;;;;;;;4.15;3.85;;;;;;;;;;5094351;28;20029;-74
2023/08/02 02:49:05;;;;;;;3.90;3.60;;;;;;;;;;5097051;28;20042;-72
2023/08/02 02:51:31;;;;;;;4.55;4.15;;;;;;;;;;5091406;28;20103;-73
2023/08/02 02:53:56;;;;;;;4.25;3.85;;;;;;;;;;5097415;28;20102;-72
2023/08/02 02:56:21;;;;;;;4.32;4.03;;;;;;;;;;5094416;28;20050;-74
2023/08/02 02:58:47;;;;;;;3.88;3.58;;;;;;;;;;5095271;28;20081;-74
2023/08/02 03:01:12;;;;;;;4.15;3.75;;;;;;;;;;5095711;28;20015;-72
2023/08/02 03:03:37;;;;;;;3.97;3.58;;;;;;;;;;5096518;28;20575;-72
2023/08/02 03:06:03;;;;;;;4.50;4.10;;;;;;;;;;5102527;28;20448;-72
2023/08/02 03:08:28;;;;;;;4.47;4.13;;;;;;;;;;5101477;27;20466;-74
2023/08/02 03:10:54;;;;;;;4.63;4.07;;;;;;;;;;5099554;28;20035;-73
2023/08/02 03:13:19;;;;;;;4.28;3.92;;;;;;;;;;5097991;28;20036;-72
2023/08/02 03:15:44;;;;;;;4.10;3.80;;;;;;;;;;5099780;28;20047;-73
2023/08/02 03:18:10;;;;;;;4.85;4.43;;;;;;;;;;5103015;28;20035;-72
2023/08/02 03:20:37;;;;;;;4.50;4.10;;;;;;;;;;5102036;28;20041;-77
2023/08/02 03:23:02;;;;;;;4.75;4.38;;;;;;;;;;5103514;28;20038;-73
2023/08/02 03:25:28;;;;;;;5.00;4.53;;;;;;;;;;5100741;28;20031;-73
2023/08/02 03:27:54;;;;;;;6.90;4.18;;;;;;;;;;5103009;28;20100;-75
2023/08/02 03:30:19;;;;;;;4.20;3.80;;;;;;;;;;5100825;28;20019;-72
2023/08/02 03:32:44;;;;;;;4.43;4.07;;;;;;;;;;5101481;28;20027;-75
2023/08/02 03:35:10;;;;;;;4.82;4.43;;;;;;;;;;5099948;28;20031;-72
2023/08/02 03:37:35;;;;;;;4.78;4.28;;;;;;;;;;5099281;28;20031;-74
2023/08/02 03:40:00;;;;;;;4.93;4.10;;;;;;;;;;5096424;28;21156;-75
2023/08/02 03:42:26;;;;;;;5.57;4.68;;;;;;;;;;5100947;28;20066;-72
2023/08/02 03:44:51;;;;;;;6.28;4.10;;;;;;;;;;5098746;28;20030;-73
2023/08/02 03:47:17;;;;;;;4.53;4.22;;;;;;;;;;5100566;28;20035;-72
2023/08/02 03:49:42;;;;;;;4.85;4.38;;;;;;;;;;5099063;28;20030;-73
2023/08/02 03:52:08;;;;;;;5.10;4.70;;;;;;;;;;5102040;28;20427;-72
2023/08/02 03:54:33;;;;;;;5.00;4.57;;;;;;;;;;5096600;28;20709;-73
2023/08/02 03:56:58;;;;;;;6.88;4.22;;;;;;;;;;5098637;28;20120;-76
2023/08/02 03:59:23;;;;;;;5.28;4.78;;;;;;;;;;5103455;28;20164;-76
2023/08/02 04:01:49;;;;;;;4.80;4.40;;;;;;;;;;5098462;28;20027;-72
2023/08/02 04:04:14;;;;;;;4.80;4.40;;;;;;;;;;5097071;28;20015;-76
2023/08/02 04:06:39;;;;;;;4.97;4.50;;;;;;;;;;5100117;28;20023;-73
2023/08/02 04:09:05;;;;;;;5.20;4.70;;;;;;;;;;5096705;28;20408;-72
2023/08/02 04:11:31;;;;;;;4.30;3.90;;;;;;;;;;5100585;28;20028;-73
2023/08/02 04:13:57;;;;;;;4.90;4.50;;;;;;;;;;5099069;28;20023;-72
2023/08/02 04:16:22;;;;;;;7.15;4.63;;;;;;;;;;5100381;28;20030;-72
2023/08/02 04:18:47;;;;;;;5.20;4.70;;;;;;;;;;5098469;28;20027;-74
2023/08/02 04:21:17;;;;;;;5.13;4.60;;;;;;;;;;5094054;28;20038;-72
2023/08/02 04:23:42;;;;;;;4.90;4.50;;;;;;;;;;5098315;28;20434;-72
2023/08/02 04:26:10;;;;;;;5.95;4.63;;;;;;;;;;5099336;28;20133;-72
2023/08/02 04:28:36;;;;;;;5.57;4.97;;;;;;;;;;5099276;28;20046;-72
2023/08/02 04:31:02;;;;;;;4.82;4.43;;;;;;;;;;5099956;28;20024;-73
2023/08/02 04:33:27;;;;;;;4.80;4.40;;;;;;;;;;5100774;28;20024;-74
2023/08/02 04:35:52;;;;;;;6.45;4.68;;;;;;;;;;5100734;28;20028;-73
2023/08/02 04:38:17;;;;;;;5.90;5.30;;;;;;;;;;5100632;28;20173;-74
2023/08/02 04:40:43;;;;;;;5.80;5.38;;;;;;;;;;5099540;28;20116;-73
2023/08/02 04:43:08;;;;;;;5.88;4.82;;;;;;;;;;5100175;28;20035;-73
2023/08/02 04:45:34;;;;;;;7.85;5.40;;;;;;;;;;5098610;28;20023;-73
2023/08/02 04:47:59;;;;;;;5.22;4.72;;;;;;;;;;5097488;28;20035;-74
2023/08/02 04:50:24;;;;;;;5.75;4.80;;;;;;;;;;5095831;28;20825;-72
2023/08/02 04:52:51;;;;;;;5.57;5.00;;;;;;;;;;5099138;28;20088;-73
2023/08/02 04:55:16;;;;;;;6.93;5.03;;;;;;;;;;5097914;28;20136;-73
2023/08/02 04:57:42;;;;;;;8.07;7.28;;;;;;;;;;5098308;28;20625;-73
2023/08/02 05:00:07;;;;;;;5.55;5.05;;;;;;;;;;5101137;28;20039;-75
2023/08/02 05:02:36;;;;;;;7.20;5.35;;;;;;;;;;5098128;27;20033;-76
2023/08/02 05:05:02;;;;;;;5.40;4.93;;;;;;;;;;5100502;28;20118;-73
2023/08/02 05:07:27;;;;;;;5.95;5.28;;;;;;;;;;5099772;28;20409;-75
2023/08/02 05:09:53;;;;;;;5.88;5.25;;;;;;;;;;5100103;28;20030;-73
2023/08/02 05:12:18;;;;;;;5.30;4.75;;;;;;;;;;5098268;28;20020;-72
2023/08/02 05:14:43;;;;;;;5.70;5.20;;;;;;;;;;5094684;28;20027;-75
2023/08/02 05:17:08;;;;;;;6.30;5.18;;;;;;;;;;5098765;28;20119;-73
2023/08/02 05:19:34;;;;;;;5.47;4.97;;;;;;;;;;5097196;28;20111;-72
2023/08/02 05:21:59;;;;;;;5.25;4.75;;;;;;;;;;5099179;28;20073;-73
2023/08/02 05:24:25;;;;;;;5.00;4.55;;;;;;;;;;5100273;28;20096;-72
2023/08/02 05:26:50;;;;;;;5.43;4.93;;;;;;;;;;5095847;28;20031;-72
2023/08/02 05:29:15;;;;;;;6.97;5.35;;;;;;;;;;5098712;27;20119;-72
2023/08/02 05:31:41;;;;;;;7.20;5.70;;;;;;;;;;5097550;28;20028;-73
2023/08/02 05:34:06;;;;;;;6.60;6.00;;;;;;;;;;5099729;28;20039;-75
2023/08/02 05:36:32;;;;;;;6.85;6.20;;;;;;;;;;5097423;28;20024;-73
2023/08/02 05:38:57;;;;;;;7.95;6.47;;;;;;;;;;5094326;28;20047;-76
2023/08/02 05:41:22;;;;;;;7.80;6.25;;;;;;;;;;5099410;28;20039;-75
2023/08/02 05:43:48;;;;;;;6.18;5.57;;;;;;;;;;5096303;28;20036;-74
2023/08/02 05:46:13;;;;;;;6.40;5.82;;;;;;;;;;5097900;28;20019;-74
2023/08/02 05:48:38;;;;;;;7.13;5.47;;;;;;;;;;5098191;28;20124;-73
2023/08/02 05:51:04;;;;;;;6.82;6.13;;;;;;;;;;5099701;28;20035;-73
2023/08/02 05:53:29;;;;;;;7.03;6.18;;;;;;;;;;5097339;28;20070;-73
2023/08/02 05:55:55;;;;;;;8.30;6.50;;;;;;;;;;5095708;28;20026;-73
2023/08/02 05:58:20;;;;;;;6.72;6.13;;;;;;;;;;5097550;28;20023;-75
2023/08/02 06:00:45;;;;;;;8.07;7.22;;;;;;;;;;5098600;28;20450;-73
2023/08/02 06:03:11;;;;;;;8.63;6.38;;;;;;;;;;5099825;28;20438;-72
2023/08/02 06:05:36;;;;;;;7.57;6.32;;;;;;;;;;5097378;28;20050;-75
2023/08/02 06:08:02;;;;;;;7.60;6.88;;;;;;;;;;5098207;28;20028;-74
2023/08/02 06:10:27;;;;;;;8.25;6.68;;;;;;;;;;5097011;28;20046;-73
2023/08/02 06:12:52;;;;;;;9.70;7.03;;;;;;;;;;5099175;28;20029;-78
2023/08/02 06:15:18;;;;;;;6.97;6.28;;;;;;;;;;5095918;28;20462;-72
2023/08/02 06:17:43;;;;;;;6.88;6.20;;;;;;;;;;5098582;28;20035;-73
2023/08/02 06:20:09;;;;;;;10.57;6.72;;;;;;;;;;5096493;28;20051;-73
2023/08/02 06:22:34;;;;;;;7.18;6.47;;;;;;;;;;5097846;28;20012;-73
2023/08/02 06:25:00;;;;;;;8.82;7.03;;;;;;;;;;5098219;28;20028;-72
2023/08/02 06:27:25;;;;;;;7.38;6.55;;;;;;;;;;5099328;28;20410;-75
2023/08/02 06:29:50;;;;;;;8.63;7.03;;;;;;;;;;5099261;28;20031;-74
2023/08/02 06:32:16;;;;;;;8.07;6.70;;;;;;;;;;5100035;28;20028;-73
2023/08/02 06:34:41;;;;;;;7.70;6.28;;;;;;;;;;5098193;28;20061;-72
2023/08/02 06:37:06;;;;;;;8.15;6.53;;;;;;;;;;5098618;28;20085;-73
2023/08/02 06:39:33;;;;;;;7.53;6.15;;;;;;;;;;5100023;28;20082;-74
2023/08/02 06:41:58;;;;;;;8.70;5.82;;;;;;;;;;5104188;28;20023;-73
2023/08/02 06:44:23;;;;;;;7.78;6.05;;;;;;;;;;5105277;28;20423;-72
2023/08/02 06:46:49;;;;;;;6.03;5.43;;;;;;;;;;5100979;28;20027;-73
2023/08/02 06:49:14;;;;;;;6.57;5.03;;;;;;;;;;5101918;28;20102;-77
2023/08/02 06:51:40;;;;;;;7.60;5.68;;;;;;;;;;5103568;28;20442;-73
2023/08/02 06:54:05;;;;;;;9.00;6.38;;;;;;;;;;5102613;28;20039;-75
2023/08/02 06:56:30;;;;;;;6.75;5.85;;;;;;;;;;5102655;28;20024;-72
2023/08/02 06:58:56;;;;;;;7.38;6.38;;;;;;;;;;5102906;28;20036;-71
2023/08/02 07:01:22;;;;;;;7.43;6.70;;;;;;;;;;5101956;28;20397;-72
2023/08/02 07:03:48;;;;;;;7.85;6.57;;;;;;;;;;5102159;27;20104;-73
2023/08/02 07:06:14;;;;;;;7.47;6.70;;;;;;;;;;5102489;28;20062;-75
2023/08/02 07:08:40;;;;;;;8.43;6.90;;;;;;;;;;5102896;28;20020;-73
2023/08/02 07:11:06;;;;;;;8.15;6.78;;;;;;;;;;5103908;28;20506;-73
2023/08/02 07:13:31;;;;;;;10.07;7.05;;;;;;;;;;5101793;28;20087;-74
2023/08/02 07:15:57;;;;;;;12.73;6.95;;;;;;;;;;5101532;28;20011;-73
2023/08/02 07:18:22;;;;;;;8.02;6.95;;;;;;;;;;5101743;28;20031;-75
2023/08/02 07:20:47;;;;;;;8.15;7.35;;;;;;;;;;5097890;28;20035;-74
2023/08/02 07:23:13;;;;;;;9.20;6.72;;;;;;;;;;5100406;27;20032;-73
2023/08/02 07:25:38;;;;;;;6.70;6.05;;;;;;;;;;5101195;28;20024;-77
2023/08/02 07:28:03;;;;;;;8.55;7.13;;;;;;;;;;5100052;28;20499;-73
2023/08/02 07:30:29;;;;;;;10.60;7.15;;;;;;;;;;5100557;28;20338;-74
2023/08/02 07:32:54;;;;;;;7.65;6.95;;;;;;;;;;5101684;28;20027;-76
2023/08/02 07:35:19;;;;;;;8.32;7.18;;;;;;;;;;5101235;28;20027;-72
2023/08/02 07:37:45;;;;;;;8.82;7.80;;;;;;;;;;5099770;28;20024;-73
2023/08/02 07:40:10;;;;;;;11.45;8.07;;;;;;;;;;5102070;28;20024;-74
2023/08/02 07:42:36;;;;;;;10.18;9.10;;;;;;;;;;5099411;28;20023;-73
2023/08/02 07:45:06;;;;;;;9.90;9.00;;;;;;;;;;5103151;28;20350;-73
2023/08/02 07:47:31;;;;;;;10.15;9.15;;;;;;;;;;5103039;28;20886;-73
2023/08/02 07:49:57;;;;;;;11.07;9.95;;;;;;;;;;5098191;28;20038;-73
2023/08/02 07:52:22;;;;;;;10.45;9.40;;;;;;;;;;5103072;28;20088;-76
2023/08/02 07:54:48;;;;;;;9.35;8.55;;;;;;;;;;5099161;28;20019;-73
2023/08/02 07:57:13;;;;;;;9.18;8.30;;;;;;;;;;5100935;28;20739;-77
2023/08/02 07:59:38;;;;;;;10.32;9.38;;;;;;;;;;5103743;28;20468;-75
2023/08/02 08:02:04;;;;;;;14.18;10.77;;;;;;;;;;5100084;27;20033;-75
2023/08/02 08:04:29;;;;;;;10.80;9.52;;;;;;;;;;5099842;28;20110;-73
2023/08/02 08:06:54;;;;;;;9.52;8.73;;;;;;;;;;5101590;28;20028;-73
2023/08/02 08:09:23;;;;;;;9.98;8.98;;;;;;;;;;5099497;27;20118;-74
2023/08/02 08:11:49;;;;;;;;;;;;;;;;;;5101476;28;20020;-74
2023/08/02 08:14:14;;;;;;;9.23;8.33;;;;;;;;;;5098465;28;19927;-74
2023/08/02 08:16:39;;;;;;;10.55;8.27;;;;;;;;;;5102604;28;20084;-73
2023/08/02 08:19:05;;;;;;;8.40;7.60;;;;;;;;;;5101295;27;20040;-73
2023/08/02 08:21:31;;;;;;;11.15;7.82;;;;;;;;;;5099948;28;20019;-73
2023/08/02 08:23:56;;;;;;;8.40;7.53;;;;;;;;;;5101225;28;20157;-73
2023/08/02 08:26:22;;;;;;;10.52;7.18;;;;;;;;;;5099563;28;20146;-73
2023/08/02 08:28:48;;;;;;;9.00;7.65;;;;;;;;;;5102454;28;20088;-72
2023/08/02 08:31:13;;;;;;;8.55;7.85;;;;;;;;;;5099400;28;20409;-77
2023/08/02 08:33:38;;;;;;;8.32;7.18;;;;;;;;;;5103554;28;20566;-76
2023/08/02 08:36:04;;;;;;;8.63;7.80;;;;;;;;;;5098567;28;20528;-73
2023/08/02 08:38:30;;;;;;;8.52;6.78;;;;;;;;;;5099682;28;20480;-74
2023/08/02 08:40:56;;;;;;;7.30;6.60;;;;;;;;;;5100356;28;20098;-74
2023/08/02 08:43:25;;;;;;;7.78;6.97;;;;;;;;;;5100525;28;20028;-76
2023/08/02 08:45:52;;;;;;;7.55;6.95;;;;;;;;;;5100187;28;20027;-73
2023/08/02 08:48:17;;;;;;;7.53;6.72;;;;;;;;;;5101183;28;20426;-77
2023/08/02 08:50:44;;;;;;;7.30;6.70;;;;;;;;;;5100102;28;20046;-73
2023/08/02 08:53:14;;;;;;;8.60;6.35;;;;;;;;;;5098605;28;20694;-72
2023/08/02 08:55:40;;;;;;;6.68;6.07;;;;;;;;;;5098565;28;20123;-75
2023/08/02 08:58:06;;;;;;;6.07;5.50;;;;;;;;;;5096073;28;20050;-74
2023/08/02 09:00:32;;;;;;;7.07;5.38;;;;;;;;;;5097847;28;20106;-75
2023/08/02 09:02:59;;;;;;;5.10;4.70;;;;;;;;;;5099031;28;20172;-73
2023/08/02 09:05:26;;;;;;;5.78;4.82;;;;;;;;;;5100466;28;20076;-77
2023/08/02 09:07:58;;;;;;;4.93;4.40;;;;;;;;;;5097264;28;20068;-73
2023/08/02 09:10:23;;;;;;;6.65;4.45;;;;;;;;;;5101489;28;20083;-74
2023/08/02 09:12:49;;;;;;;5.07;4.55;;;;;;;;;;5101336;28;20031;-72
2023/08/02 09:15:15;;;;;;;4.95;4.43;;;;;;;;;;5097511;28;20043;-74
2023/08/02 09:17:47;;;;;;;6.60;4.75;;;;;;;;;;5101577;28;20042;-75
2023/08/02 09:20:13;;;;;;;5.10;4.70;;;;;;;;;;5097123;28;20397;-74
2023/08/02 09:22:38;;;;;;;5.60;4.93;;;;;;;;;;5097978;28;20039;-74
2023/08/02 09:25:07;;;;;;;5.63;4.63;;;;;;;;;;5095317;28;20080;-73
2023/08/02 09:27:33;;;;;;;5.63;5.00;;;;;;;;;;5099318;27;20055;-73
2023/08/02 09:29:58;;;;;;;5.82;4.82;;;;;;;;;;5097537;28;20086;-72
2023/08/02 09:32:24;;;;;;;5.38;4.88;;;;;;;;;;5098149;28;20019;-74
2023/08/02 09:34:54;;;;;;;5.07;4.68;;;;;;;;;;5099706;28;20027;-74
2023/08/02 09:37:29;;;;;;;5.28;4.68;;;;;;;;;;5099024;28;20031;-74
2023/08/02 09:39:55;;;;;;;5.72;5.22;;;;;;;;;;5098403;28;20055;-75
2023/08/02 09:42:25;;;;;;;4.65;4.25;;;;;;;;;;5098210;28;20027;-71
2023/08/02 09:44:55;;;;;;;7.97;4.63;;;;;;;;;;5099523;28;20434;-74
2023/08/02 09:47:21;;;;;;;6.43;4.95;;;;;;;;;;5098166;28;20470;-74
2023/08/02 09:50:01;;;;;;;5.25;4.78;;;;;;;;;;5097212;28;20103;-74
2023/08/02 09:52:26;;;;;;;5.15;4.85;;;;;;;;;;5098509;28;20035;-74
2023/08/02 09:54:53;;;;;;;4.93;4.53;;;;;;;;;;5101859;28;20015;-74
2023/08/02 09:57:18;;;;;;;4.78;4.47;;;;;;;;;;5098884;28;20443;-74
2023/08/02 09:59:44;;;;;;;5.05;4.53;;;;;;;;;;5098366;28;20023;-74
2023/08/02 10:02:10;;;;;;;5.47;4.30;;;;;;;;;;5098082;28;20030;-77
2023/08/02 10:04:35;;;;;;;4.72;4.18;;;;;;;;;;5097708;28;20024;-72
2023/08/02 10:07:07;;;;;;;5.82;3.80;;;;;;;;;;5099458;28;20031;-75
2023/08/02 10:09:34;;;;;;;4.03;3.38;;;;;;;;;;5096338;28;20529;-73
2023/08/02 10:12:09;;;;;;;4.18;3.88;;;;;;;;;;5096514;28;20111;-74
2023/08/02 10:14:35;;;;;;;4.20;3.80;;;;;;;;;;5095164;28;20032;-74
2023/08/02 10:17:01;;;;;;;4.72;4.25;;;;;;;;;;5098961;28;20028;-75
2023/08/02 10:19:30;;;;;;;4.68;4.22;;;;;;;;;;5098745;28;20031;-72
2023/08/02 10:21:55;;;;;;;;;;;;;;;;;;5101137;28;20106;-72
2023/08/02 10:24:21;;;;;;;3.90;3.60;;;;;;;;;;5097468;28;20095;-72
2023/08/02 10:26:46;;;;;;;4.40;3.80;;;;;;;;;;5097645;28;20138;-75
2023/08/02 10:29:13;;;;;;;6.07;4.40;;;;;;;;;;5098500;28;20351;-74
2023/08/02 10:31:40;;;;;;;4.20;3.80;;;;;;;;;;5098302;28;20042;-76
2023/08/02 10:34:24;;;;;;;4.43;4.03;;;;;;;;;;5093151;28;20023;-72
2023/08/02 10:36:58;;;;;;;4.30;3.92;;;;;;;;;;5099152;28;20069;-72
2023/08/02 10:39:52;;;;;;;4.72;4.32;;;;;;;;;;5098713;28;20047;-74
2023/08/02 10:42:22;;;;;;;6.05;4.57;;;;;;;;;;5038381;28;20118;-74
2023/08/02 10:44:56;;;;;;;4.70;4.30;;;;;;;;;;5038129;28;20459;-74
2023/08/02 10:47:25;;;;;;;4.72;4.43;;;;;;;;;;5037396;28;20048;-73
2023/08/02 10:49:50;;;;;;;;;;;;;;;;;;5038583;28;20037;-74
2023/08/02 10:52:23;;;;;;;4.60;4.20;;;;;;;;;;5038909;28;20537;-73
2023/08/02 10:55:11;;;;;;;5.07;4.57;;;;;;;;;;5038613;28;20410;-73
2023/08/02 10:57:38;;;;;;;4.90;4.35;;;;;;;;;;5027227;28;20052;-74
2023/08/02 11:00:20;;;;;;;4.70;4.30;;;;;;;;;;5037610;28;20036;-73
2023/08/02 11:02:46;;;;;;;4.75;4.22;;;;;;;;;;5037212;28;20024;-73
2023/08/02 11:05:12;;;;;;;4.60;4.20;;;;;;;;;;5038519;28;20467;-75
2023/08/02 11:07:38;;;;;;;4.93;4.53;;;;;;;;;;5038637;28;20036;-79
2023/08/02 11:10:06;;;;;;;4.80;4.40;;;;;;;;;;5037440;28;20561;-76
2023/08/02 11:12:33;;;;;;;4.70;4.32;;;;;;;;;;5039321;28;20045;-73
2023/08/02 11:14:59;;;;;;;5.13;4.43;;;;;;;;;;5039340;28;20388;-73
2023/08/02 11:17:25;;;;;;;5.43;3.55;;;;;;;;;;5037173;28;20028;-77
2023/08/02 11:19:51;;;;;;;4.03;3.72;;;;;;;;;;5093907;28;20078;-73
2023/08/02 11:22:17;;;;;;;4.03;3.63;;;;;;;;;;5095895;28;20036;-73
2023/08/02 11:24:43;;;;;;;4.10;3.70;;;;;;;;;;5097441;28;20026;-72
2023/08/02 11:27:08;;;;;;;3.80;3.50;;;;;;;;;;5103143;28;20031;-75
2023/08/02 11:29:34;;;;;;;4.57;4.15;;;;;;;;;;5100432;28;20024;-73
2023/08/02 11:32:04;;;;;;;4.00;3.70;;;;;;;;;;5102841;28;20032;-73
2023/08/02 11:34:34;;;;;;;4.10;3.70;;;;;;;;;;5104010;28;20026;-73
2023/08/02 11:37:02;;;;;;;4.85;3.65;;;;;;;;;;5100132;28;20131;-76
2023/08/02 11:39:27;;;;;;;4.03;3.50;;;;;;;;;;5104293;28;20175;-73
2023/08/02 11:42:02;;;;;;;4.68;4.00;;;;;;;;;;5101988;28;20052;-74
2023/08/02 11:44:28;;;;;;;4.07;3.65;;;;;;;;;;5102382;28;20098;-72
2023/08/02 11:46:54;;;;;;;5.90;3.60;;;;;;;;;;5100441;28;20123;-74
2023/08/02 11:49:19;;;;;;;3.67;3.47;;;;;;;;;;5100018;28;20088;-73
2023/08/02 11:51:45;;;;;;;4.00;3.70;;;;;;;;;;5101740;28;20024;-73
2023/08/02 11:54:11;;;;;;;4.00;3.70;;;;;;;;;;5100231;28;20023;-75
2023/08/02 11:56:37;;;;;;;4.35;3.95;;;;;;;;;;5103007;28;20443;-74
2023/08/02 11:59:03;;;;;;;4.00;3.70;;;;;;;;;;5100279;28;20039;-73
2023/08/02 12:01:28;;;;;;;5.22;3.70;;;;;;;;;;5100528;28;20046;-72
2023/08/02 12:04:00;;;;;;;4.30;3.80;;;;;;;;;;5100814;27;20366;-73
2023/08/02 12:06:27;;;;;;;4.05;3.70;;;;;;;;;;5103469;28;20043;-75
2023/08/02 12:08:53;;;;;;;3.53;3.33;;;;;;;;;;5103025;28;20027;-75
2023/08/02 12:11:19;;;;;;;3.78;3.45;;;;;;;;;;5103718;28;20024;-73
2023/08/02 12:13:44;;;;;;;4.03;3.72;;;;;;;;;;5102447;28;20085;-72
2023/08/02 12:16:11;;;;;;;4.63;3.40;;;;;;;;;;5099524;28;20030;-72
2023/08/02 12:19:09;;;;;;;3.80;3.50;;;;;;;;;;5100611;28;20046;-73
2023/08/02 12:21:34;;;;;;;3.40;3.17;;;;;;;;;;5023371;28;20101;-74
2023/08/02 12:24:10;;;;;;;4.63;3.60;;;;;;;;;;5030481;28;20033;-74
2023/08/02 12:26:36;;;;;;;5.25;4.05;;;;;;;;;;5032577;28;20364;-73
2023/08/02 12:29:02;;;;;;;4.57;4.22;;;;;;;;;;5032092;28;20404;-75
2023/08/02 12:31:28;;;;;;;3.97;3.38;;;;;;;;;;5030658;28;20544;-74
2023/08/02 12:33:54;;;;;;;3.90;3.58;;;;;;;;;;5031071;28;20508;-74
2023/08/02 12:36:26;;;;;;;3.78;3.47;;;;;;;;;;5034622;28;20544;-76
2023/08/02 12:38:51;;;;;;;3.80;3.50;;;;;;;;;;5028058;28;20045;-75
2023/08/02 12:41:16;;;;;;;3.80;3.50;;;;;;;;;;5030121;28;20048;-74
2023/08/02 12:43:42;;;;;;;3.70;3.40;;;;;;;;;;5028577;28;20048;-73
2023/08/02 12:46:07;;;;;;;3.97;3.67;;;;;;;;;;5029014;28;20021;-72
2023/08/02 12:48:32;;;;;;;3.90;3.47;;;;;;;;;;5029178;28;20041;-74
2023/08/02 12:50:58;;;;;;;4.18;3.78;;;;;;;;;;5031823;28;20041;-73
2023/08/02 12:53:23;;;;;;;6.57;5.97;;;;;;;;;;5029772;28;20100;-74
2023/08/02 12:55:48;;;;;;;5.22;3.75;;;;;;;;;;5033645;28;20028;-74
2023/08/02 12:58:14;;;;;;;4.50;4.10;;;;;;;;;;5097449;28;20032;-74
2023/08/02 13:00:39;;;;;;;6.10;3.85;;;;;;;;;;5099596;28;20425;-75
2023/08/02 13:03:05;;;;;;;5.53;5.07;;;;;;;;;;5101437;28;20051;-73
2023/08/02 13:05:30;;;;;;;4.50;3.80;;;;;;;;;;5100501;28;20012;-74
2023/08/02 13:07:55;;;;;;;7.18;3.42;;;;;;;;;;5098194;28;20104;-74
2023/08/02 13:10:21;;;;;;;4.55;3.47;;;;;;;;;;5099963;28;20024;-74
2023/08/02 13:12:46;;;;;;;4.65;4.25;;;;;;;;;;5100569;28;20052;-73
2023/08/02 13:15:11;;;;;;;4.75;4.10;;;;;;;;;;5097077;28;20027;-75
2023/08/02 13:17:37;;;;;;;4.00;3.70;;;;;;;;;;5099788;28;20066;-74
2023/08/02 13:20:03;;;;;;;4.50;4.10;;;;;;;;;;5099616;28;20046;-75
2023/08/02 13:22:28;;;;;;;4.22;3.90;;;;;;;;;;5100157;28;20024;-74
2023/08/02 13:24:54;;;;;;;3.90;3.60;;;;;;;;;;5099385;28;20460;-74
2023/08/02 13:27:19;;;;;;;3.85;3.53;;;;;;;;;;5100426;28;20641;-74
2023/08/02 13:29:46;;;;;;;11.77;10.77;;;;;;;;;;5101984;28;20122;-75
2023/08/02 13:32:12;;;;;;;8.50;7.80;;;;;;;;;;5097958;28;20031;-73
2023/08/02 13:34:37;;;;;;;5.18;4.78;;;;;;;;;;5101122;28;20482;-73
2023/08/02 13:37:03;;;;;;;3.92;3.63;;;;;;;;;;5098636;28;20038;-79
2023/08/02 13:39:29;;;;;;;4.28;3.97;;;;;;;;;;5100797;28;20043;-73
2023/08/02 13:41:54;;;;;;;5.95;4.07;;;;;;;;;;5098339;28;20833;-77
2023/08/02 13:44:19;;;;;;;3.55;3.30;;;;;;;;;;5099485;28;20403;-75
2023/08/02 13:46:44;;;;;;;3.90;3.60;;;;;;;;;;5100915;28;20054;-74
2023/08/02 13:49:10;;;;;;;4.30;3.83;;;;;;;;;;5098743;28;20047;-73
2023/08/02 13:51:35;;;;;;;10.65;9.55;;;;;;;;;;5100154;28;20024;-74
2023/08/02 13:54:01;;;;;;;4.50;4.20;;;;;;;;;;5095672;28;20839;-73
2023/08/02 13:56:26;;;;;;;4.03;3.63;;;;;;;;;;5096020;28;20119;-73
2023/08/02 13:58:52;;;;;;;4.10;3.60;;;;;;;;;;5101979;28;20110;-77
2023/08/02 14:01:17;;;;;;;3.85;3.55;;;;;;;;;;5098835;28;20039;-74
2023/08/02 14:03:42;;;;;;;4.68;3.60;;;;;;;;;;5097737;28;20044;-73
2023/08/02 14:06:08;;;;;;;4.13;3.65;;;;;;;;;;5099075;28;20024;-76
2023/08/02 14:08:33;;;;;;;3.85;3.55;;;;;;;;;;5098314;28;20050;-75
2023/08/02 14:10:58;;;;;;;3.80;3.53;;;;;;;;;;5098526;28;20108;-72
2023/08/02 14:13:24;;;;;;;3.95;3.65;;;;;;;;;;5101515;28;20063;-73
2023/08/02 14:15:49;;;;;;;3.80;3.50;;;;;;;;;;5097994;28;20088;-74
2023/08/02 14:18:14;;;;;;;4.15;3.85;;;;;;;;;;5100242;28;20496;-73
2023/08/02 14:20:40;;;;;;;4.03;3.65;;;;;;;;;;5099582;28;20034;-74
2023/08/02 14:23:05;;;;;;;4.13;3.72;;;;;;;;;;5099019;28;20024;-72
2023/08/02 14:25:30;;;;;;;4.28;3.97;;;;;;;;;;5094880;28;20050;-74
2023/08/02 14:27:56;;;;;;;4.18;3.60;;;;;;;;;;5097422;28;20031;-77
2023/08/02 14:30:21;;;;;;;4.40;4.00;;;;;;;;;;5097975;28;20039;-74
2023/08/02 14:32:47;;;;;;;4.72;4.28;;;;;;;;;;5099490;28;20734;-76
2023/08/02 14:35:12;;;;;;;4.43;4.03;;;;;;;;;;5100014;28;20394;-75
2023/08/02 14:37:38;;;;;;;4.60;4.22;;;;;;;;;;5094759;28;20039;-72